sensor_id;sensor_type;location;lat;lon;timestamp;temperature;humidity
546;DHT22;259;53.304;9.816;2023-03-03T00:00:43;14.70;57.40
546;DHT22;259;53.304;9.816;2023-03-03T00:03:10;14.70;57.60
546;DHT22;259;53.304;9.816;2023-03-03T00:05:37;14.70;57.60
546;DHT22;259;53.304;9.816;2023-03-03T00:08:03;14.70;57.60
546;DHT22;259;53.304;9.816;2023-03-03T00:10:29;14.60;57.50
546;DHT22;259;53.304;9.816;2023-03-03T00:12:55;14.60;57.50
546;DHT22;259;53.304;9.816;2023-03-03T00:15:23;14.60;57.60
546;DHT22;259;53.304;9.816;2023-03-03T00:17:50;14.50;57.50
546;DHT22;259;53.304;9.816;2023-03-03T00:22:54;14.50;57.70
546;DHT22;259;53.304;9.816;2023-03-03T00:25:23;14.50;57.70
546;DHT22;259;53.304;9.816;2023-03-03T00:27:53;14.40;57.60
546;DHT22;259;53.304;9.816;2023-03-03T00:30:27;14.40;57.70
546;DHT22;259;53.304;9.816;2023-03-03T00:32:53;14.40;57.80
546;DHT22;259;53.304;9.816;2023-03-03T00:35:30;14.40;57.80
546;DHT22;259;53.304;9.816;2023-03-03T00:38:10;14.30;57.70
546;DHT22;259;53.304;9.816;2023-03-03T00:40:39;14.40;57.70
546;DHT22;259;53.304;9.816;2023-03-03T00:43:24;14.30;57.80
546;DHT22;259;53.304;9.816;2023-03-03T00:45:55;14.30;57.80
546;DHT22;259;53.304;9.816;2023-03-03T00:53:49;14.20;57.80
546;DHT22;259;53.304;9.816;2023-03-03T00:56:15;14.20;57.80
546;DHT22;259;53.304;9.816;2023-03-03T00:58:41;14.20;58.00
546;DHT22;259;53.304;9.816;2023-03-03T01:01:08;14.10;57.90
546;DHT22;259;53.304;9.816;2023-03-03T01:03:34;14.10;57.90
546;DHT22;259;53.304;9.816;2023-03-03T01:06:00;14.10;58.00
546;DHT22;259;53.304;9.816;2023-03-03T01:08:25;14.10;57.90
546;DHT22;259;53.304;9.816;2023-03-03T01:10:57;14.00;57.90
546;DHT22;259;53.304;9.816;2023-03-03T01:13:26;14.00;58.00
546;DHT22;259;53.304;9.816;2023-03-03T01:15:53;14.00;58.00
546;DHT22;259;53.304;9.816;2023-03-03T01:18:19;14.00;58.00
546;DHT22;259;53.304;9.816;2023-03-03T01:20:45;13.90;58.10
546;DHT22;259;53.304;9.816;2023-03-03T01:23:11;13.90;58.10
546;DHT22;259;53.304;9.816;2023-03-03T01:25:36;13.90;58.00
546;DHT22;259;53.304;9.816;2023-03-03T01:28:02;13.90;58.10
546;DHT22;259;53.304;9.816;2023-03-03T01:30:28;13.90;58.00
546;DHT22;259;53.304;9.816;2023-03-03T01:32:54;13.90;58.10
546;DHT22;259;53.304;9.816;2023-03-03T01:35:19;13.80;58.00
546;DHT22;259;53.304;9.816;2023-03-03T01:37:45;13.80;58.30
546;DHT22;259;53.304;9.816;2023-03-03T01:40:19;13.80;58.20
546;DHT22;259;53.304;9.816;2023-03-03T01:42:46;13.80;58.20
546;DHT22;259;53.304;9.816;2023-03-03T01:45:22;13.70;58.20
546;DHT22;259;53.304;9.816;2023-03-03T01:48:04;13.70;58.20
546;DHT22;259;53.304;9.816;2023-03-03T01:50:43;13.70;58.30
546;DHT22;259;53.304;9.816;2023-03-03T01:53:14;13.60;58.20
546;DHT22;259;53.304;9.816;2023-03-03T01:55:43;13.70;58.30
546;DHT22;259;53.304;9.816;2023-03-03T02:00:48;13.60;58.30
546;DHT22;259;53.304;9.816;2023-03-03T02:03:16;13.60;58.40
546;DHT22;259;53.304;9.816;2023-03-03T02:05:43;13.60;58.40
546;DHT22;259;53.304;9.816;2023-03-03T02:08:11;13.50;58.30
546;DHT22;259;53.304;9.816;2023-03-03T02:10:40;13.50;58.20
546;DHT22;259;53.304;9.816;2023-03-03T02:13:07;13.50;58.30
546;DHT22;259;53.304;9.816;2023-03-03T02:15:34;13.50;58.20
546;DHT22;259;53.304;9.816;2023-03-03T02:18:05;13.50;58.20
546;DHT22;259;53.304;9.816;2023-03-03T02:26:15;13.40;58.10
546;DHT22;259;53.304;9.816;2023-03-03T02:28:43;13.40;58.10
546;DHT22;259;53.304;9.816;2023-03-03T02:31:11;13.40;58.10
546;DHT22;259;53.304;9.816;2023-03-03T02:33:40;13.40;58.20
546;DHT22;259;53.304;9.816;2023-03-03T02:36:17;13.40;58.20
546;DHT22;259;53.304;9.816;2023-03-03T02:46:37;13.30;58.40
546;DHT22;259;53.304;9.816;2023-03-03T02:49:06;13.30;58.30
546;DHT22;259;53.304;9.816;2023-03-03T02:51:33;13.30;58.40
546;DHT22;259;53.304;9.816;2023-03-03T02:53:59;13.20;58.40
546;DHT22;259;53.304;9.816;2023-03-03T02:56:25;13.20;58.40
546;DHT22;259;53.304;9.816;2023-03-03T02:58:51;13.20;58.40
546;DHT22;259;53.304;9.816;2023-03-03T03:01:17;13.20;58.50
546;DHT22;259;53.304;9.816;2023-03-03T03:03:43;13.20;58.50
546;DHT22;259;53.304;9.816;2023-03-03T03:06:09;13.10;58.50
546;DHT22;259;53.304;9.816;2023-03-03T03:08:35;13.10;58.50
546;DHT22;259;53.304;9.816;2023-03-03T03:11:00;13.10;58.50
546;DHT22;259;53.304;9.816;2023-03-03T03:13:27;13.10;58.60
546;DHT22;259;53.304;9.816;2023-03-03T03:15:52;13.10;58.60
546;DHT22;259;53.304;9.816;2023-03-03T03:18:18;13.10;58.60
546;DHT22;259;53.304;9.816;2023-03-03T03:20:44;13.00;58.70
546;DHT22;259;53.304;9.816;2023-03-03T03:23:10;13.00;58.70
546;DHT22;259;53.304;9.816;2023-03-03T03:25:36;13.00;58.70
546;DHT22;259;53.304;9.816;2023-03-03T03:28:13;13.00;58.70
546;DHT22;259;53.304;9.816;2023-03-03T03:30:40;12.90;58.60
546;DHT22;259;53.304;9.816;2023-03-03T03:33:06;12.90;58.60
546;DHT22;259;53.304;9.816;2023-03-03T03:35:33;12.90;58.70
546;DHT22;259;53.304;9.816;2023-03-03T03:37:59;12.90;58.80
546;DHT22;259;53.304;9.816;2023-03-03T03:40:25;12.90;58.80
546;DHT22;259;53.304;9.816;2023-03-03T03:42:52;12.80;58.70
546;DHT22;259;53.304;9.816;2023-03-03T03:45:18;12.80;58.80
546;DHT22;259;53.304;9.816;2023-03-03T03:47:44;12.80;58.90
546;DHT22;259;53.304;9.816;2023-03-03T03:50:10;12.80;58.90
546;DHT22;259;53.304;9.816;2023-03-03T03:52:36;12.80;58.90
546;DHT22;259;53.304;9.816;2023-03-03T03:55:02;12.70;58.90
546;DHT22;259;53.304;9.816;2023-03-03T03:57:29;12.70;59.00
546;DHT22;259;53.304;9.816;2023-03-03T03:59:55;12.70;59.10
546;DHT22;259;53.304;9.816;2023-03-03T04:02:20;12.70;59.10
546;DHT22;259;53.304;9.816;2023-03-03T04:04:46;12.70;59.10
546;DHT22;259;53.304;9.816;2023-03-03T04:07:12;12.60;59.00
546;DHT22;259;53.304;9.816;2023-03-03T04:09:38;12.60;59.00
546;DHT22;259;53.304;9.816;2023-03-03T04:12:04;12.60;59.00
546;DHT22;259;53.304;9.816;2023-03-03T04:14:29;12.60;59.10
546;DHT22;259;53.304;9.816;2023-03-03T04:16:55;12.60;59.20
546;DHT22;259;53.304;9.816;2023-03-03T04:19:21;12.60;59.20
546;DHT22;259;53.304;9.816;2023-03-03T04:21:48;12.50;59.10
546;DHT22;259;53.304;9.816;2023-03-03T04:24:14;12.50;59.20
546;DHT22;259;53.304;9.816;2023-03-03T04:26:39;12.50;59.20
546;DHT22;259;53.304;9.816;2023-03-03T04:29:05;12.50;59.20
546;DHT22;259;53.304;9.816;2023-03-03T04:31:31;12.50;59.20
546;DHT22;259;53.304;9.816;2023-03-03T04:33:57;12.50;59.30
546;DHT22;259;53.304;9.816;2023-03-03T04:36:23;12.40;59.20
546;DHT22;259;53.304;9.816;2023-03-03T04:38:49;12.40;59.20
546;DHT22;259;53.304;9.816;2023-03-03T04:41:15;12.40;59.30
546;DHT22;259;53.304;9.816;2023-03-03T04:43:41;12.40;59.30
546;DHT22;259;53.304;9.816;2023-03-03T04:46:06;12.40;59.40
546;DHT22;259;53.304;9.816;2023-03-03T04:48:32;12.30;59.30
546;DHT22;259;53.304;9.816;2023-03-03T04:50:58;12.30;59.30
546;DHT22;259;53.304;9.816;2023-03-03T04:53:24;12.30;59.30
546;DHT22;259;53.304;9.816;2023-03-03T04:55:51;12.30;59.30
546;DHT22;259;53.304;9.816;2023-03-03T04:58:17;12.30;59.30
546;DHT22;259;53.304;9.816;2023-03-03T05:00:53;12.30;59.30
546;DHT22;259;53.304;9.816;2023-03-03T05:03:19;12.30;59.90
546;DHT22;259;53.304;9.816;2023-03-03T05:05:46;12.20;59.30
546;DHT22;259;53.304;9.816;2023-03-03T05:08:13;12.20;59.40
546;DHT22;259;53.304;9.816;2023-03-03T05:10:39;12.20;59.40
546;DHT22;259;53.304;9.816;2023-03-03T05:13:05;12.20;59.50
546;DHT22;259;53.304;9.816;2023-03-03T05:15:32;12.10;59.40
546;DHT22;259;53.304;9.816;2023-03-03T05:17:58;12.10;59.40
546;DHT22;259;53.304;9.816;2023-03-03T05:20:24;12.10;59.40
546;DHT22;259;53.304;9.816;2023-03-03T05:22:50;12.10;59.50
546;DHT22;259;53.304;9.816;2023-03-03T05:25:15;12.10;59.40
546;DHT22;259;53.304;9.816;2023-03-03T05:27:41;12.10;59.40
546;DHT22;259;53.304;9.816;2023-03-03T05:30:08;12.10;59.50
546;DHT22;259;53.304;9.816;2023-03-03T05:32:35;12.00;59.40
546;DHT22;259;53.304;9.816;2023-03-03T05:35:01;12.00;59.50
546;DHT22;259;53.304;9.816;2023-03-03T05:37:28;12.00;59.50
546;DHT22;259;53.304;9.816;2023-03-03T05:39:53;12.00;59.50
546;DHT22;259;53.304;9.816;2023-03-03T05:42:19;12.00;59.60
546;DHT22;259;53.304;9.816;2023-03-03T05:44:45;11.90;59.50
546;DHT22;259;53.304;9.816;2023-03-03T05:47:13;12.00;59.60
546;DHT22;259;53.304;9.816;2023-03-03T05:49:39;11.90;59.50
546;DHT22;259;53.304;9.816;2023-03-03T05:52:05;11.90;59.50
546;DHT22;259;53.304;9.816;2023-03-03T05:54:30;11.90;59.50
546;DHT22;259;53.304;9.816;2023-03-03T05:56:56;11.90;59.60
546;DHT22;259;53.304;9.816;2023-03-03T05:59:23;11.90;59.60
546;DHT22;259;53.304;9.816;2023-03-03T06:01:49;11.90;59.60
546;DHT22;259;53.304;9.816;2023-03-03T06:04:15;11.90;60.30
546;DHT22;259;53.304;9.816;2023-03-03T06:06:40;11.80;59.50
546;DHT22;259;53.304;9.816;2023-03-03T06:09:06;11.80;59.50
546;DHT22;259;53.304;9.816;2023-03-03T06:11:32;11.80;59.60
546;DHT22;259;53.304;9.816;2023-03-03T06:13:58;11.80;59.70
546;DHT22;259;53.304;9.816;2023-03-03T06:16:23;11.80;59.60
546;DHT22;259;53.304;9.816;2023-03-03T06:18:49;11.80;59.70
546;DHT22;259;53.304;9.816;2023-03-03T06:21:15;11.80;59.80
546;DHT22;259;53.304;9.816;2023-03-03T06:23:40;11.70;59.60
546;DHT22;259;53.304;9.816;2023-03-03T06:26:06;11.70;59.70
546;DHT22;259;53.304;9.816;2023-03-03T06:28:32;11.70;60.10
546;DHT22;259;53.304;9.816;2023-03-03T06:30:57;11.70;59.60
546;DHT22;259;53.304;9.816;2023-03-03T06:33:23;11.70;60.30
546;DHT22;259;53.304;9.816;2023-03-03T06:35:50;11.70;60.50
546;DHT22;259;53.304;9.816;2023-03-03T06:38:16;11.80;61.30
546;DHT22;259;53.304;9.816;2023-03-03T06:40:44;11.90;61.30
546;DHT22;259;53.304;9.816;2023-03-03T06:43:10;11.90;60.60
546;DHT22;259;53.304;9.816;2023-03-03T06:45:36;12.00;59.80
546;DHT22;259;53.304;9.816;2023-03-03T06:48:01;12.20;59.60
546;DHT22;259;53.304;9.816;2023-03-03T06:50:27;12.50;59.10
546;DHT22;259;53.304;9.816;2023-03-03T06:53:06;12.90;58.60
546;DHT22;259;53.304;9.816;2023-03-03T06:55:34;13.40;57.80
546;DHT22;259;53.304;9.816;2023-03-03T06:58:00;14.10;56.90
546;DHT22;259;53.304;9.816;2023-03-03T07:00:27;14.80;56.00
546;DHT22;259;53.304;9.816;2023-03-03T07:03:03;15.50;55.00
546;DHT22;259;53.304;9.816;2023-03-03T07:05:32;16.20;54.10
546;DHT22;259;53.304;9.816;2023-03-03T07:07:59;16.80;53.20
546;DHT22;259;53.304;9.816;2023-03-03T07:10:27;17.40;52.40
546;DHT22;259;53.304;9.816;2023-03-03T07:12:56;18.10;51.60
546;DHT22;259;53.304;9.816;2023-03-03T07:15:33;18.60;50.90
546;DHT22;259;53.304;9.816;2023-03-03T07:17:59;19.10;50.40
546;DHT22;259;53.304;9.816;2023-03-03T07:20:34;19.60;49.90
546;DHT22;259;53.304;9.816;2023-03-03T07:23:24;20.10;49.50
546;DHT22;259;53.304;9.816;2023-03-03T07:25:53;20.60;49.30
546;DHT22;259;53.304;9.816;2023-03-03T07:28:21;20.90;48.90
546;DHT22;259;53.304;9.816;2023-03-03T07:30:49;21.20;49.00
546;DHT22;259;53.304;9.816;2023-03-03T07:35:48;21.60;48.70
546;DHT22;259;53.304;9.816;2023-03-03T07:38:36;21.80;48.70
546;DHT22;259;53.304;9.816;2023-03-03T07:41:13;22.00;48.40
546;DHT22;259;53.304;9.816;2023-03-03T07:49:20;22.10;46.00
546;DHT22;259;53.304;9.816;2023-03-03T07:51:56;22.10;46.40
546;DHT22;259;53.304;9.816;2023-03-03T07:54:35;22.30;47.10
546;DHT22;259;53.304;9.816;2023-03-03T08:05:29;23.40;47.30
546;DHT22;259;53.304;9.816;2023-03-03T08:08:34;23.80;47.20
546;DHT22;259;53.304;9.816;2023-03-03T08:11:07;24.10;47.10
546;DHT22;259;53.304;9.816;2023-03-03T08:18:53;24.90;47.00
546;DHT22;259;53.304;9.816;2023-03-03T08:21:26;25.10;46.90
546;DHT22;259;53.304;9.816;2023-03-03T08:23:53;25.30;46.80
546;DHT22;259;53.304;9.816;2023-03-03T08:26:20;25.50;46.80
546;DHT22;259;53.304;9.816;2023-03-03T08:28:46;25.80;46.90
546;DHT22;259;53.304;9.816;2023-03-03T08:31:12;25.90;47.10
546;DHT22;259;53.304;9.816;2023-03-03T08:33:38;26.10;54.60
546;DHT22;259;53.304;9.816;2023-03-03T08:36:06;26.10;49.60
546;DHT22;259;53.304;9.816;2023-03-03T08:38:32;26.40;48.00
546;DHT22;259;53.304;9.816;2023-03-03T08:40:59;26.50;48.10
546;DHT22;259;53.304;9.816;2023-03-03T08:43:25;26.50;48.30
546;DHT22;259;53.304;9.816;2023-03-03T08:45:52;26.50;48.40
546;DHT22;259;53.304;9.816;2023-03-03T08:48:19;26.50;48.40
546;DHT22;259;53.304;9.816;2023-03-03T08:50:45;26.40;48.30
546;DHT22;259;53.304;9.816;2023-03-03T08:53:12;26.20;46.30
546;DHT22;259;53.304;9.816;2023-03-03T08:55:39;26.10;46.40
546;DHT22;259;53.304;9.816;2023-03-03T08:58:06;26.00;47.00
546;DHT22;259;53.304;9.816;2023-03-03T09:00:32;25.90;47.30
546;DHT22;259;53.304;9.816;2023-03-03T09:02:58;25.90;47.30
546;DHT22;259;53.304;9.816;2023-03-03T09:05:25;25.80;47.50
546;DHT22;259;53.304;9.816;2023-03-03T09:07:52;25.70;47.70
546;DHT22;259;53.304;9.816;2023-03-03T09:10:21;25.50;47.40
546;DHT22;259;53.304;9.816;2023-03-03T09:12:52;25.40;47.40
546;DHT22;259;53.304;9.816;2023-03-03T09:15:26;25.30;47.50
546;DHT22;259;53.304;9.816;2023-03-03T09:17:54;25.20;47.60
546;DHT22;259;53.304;9.816;2023-03-03T09:20:31;25.10;47.60
546;DHT22;259;53.304;9.816;2023-03-03T09:28:54;24.70;47.80
546;DHT22;259;53.304;9.816;2023-03-03T09:34:40;24.40;48.10
546;DHT22;259;53.304;9.816;2023-03-03T09:37:25;24.20;48.40
546;DHT22;259;53.304;9.816;2023-03-03T09:39:54;24.10;48.90
546;DHT22;259;53.304;9.816;2023-03-03T09:42:36;23.90;49.00
546;DHT22;259;53.304;9.816;2023-03-03T09:57:09;24.30;49.00
546;DHT22;259;53.304;9.816;2023-03-03T10:06:02;24.70;49.00
546;DHT22;259;53.304;9.816;2023-03-03T10:11:34;25.10;49.10
546;DHT22;259;53.304;9.816;2023-03-03T10:23:14;26.10;48.60
546;DHT22;259;53.304;9.816;2023-03-03T10:48:32;27.30;48.20
546;DHT22;259;53.304;9.816;2023-03-03T10:51:27;27.20;48.10
546;DHT22;259;53.304;9.816;2023-03-03T10:57:25;27.20;48.00
546;DHT22;259;53.304;9.816;2023-03-03T11:06:10;27.00;48.10
546;DHT22;259;53.304;9.816;2023-03-03T11:08:58;26.90;48.10
546;DHT22;259;53.304;9.816;2023-03-03T11:12:11;26.80;48.20
546;DHT22;259;53.304;9.816;2023-03-03T11:15:18;26.60;48.60
546;DHT22;259;53.304;9.816;2023-03-03T11:38:09;25.80;49.70
546;DHT22;259;53.304;9.816;2023-03-03T11:40:58;25.70;49.60
546;DHT22;259;53.304;9.816;2023-03-03T11:43:38;25.30;46.20
546;DHT22;259;53.304;9.816;2023-03-03T11:46:12;25.10;45.70
546;DHT22;259;53.304;9.816;2023-03-03T11:51:55;25.30;46.80
546;DHT22;259;53.304;9.816;2023-03-03T11:55:13;25.50;46.80
546;DHT22;259;53.304;9.816;2023-03-03T11:58:00;26.10;46.50
546;DHT22;259;53.304;9.816;2023-03-03T12:03:30;26.90;45.80
546;DHT22;259;53.304;9.816;2023-03-03T12:14:16;28.80;44.30
546;DHT22;259;53.304;9.816;2023-03-03T12:16:54;29.10;43.90
546;DHT22;259;53.304;9.816;2023-03-03T12:20:24;29.50;43.70
546;DHT22;259;53.304;9.816;2023-03-03T12:22:53;29.80;43.40
546;DHT22;259;53.304;9.816;2023-03-03T12:25:21;30.00;43.20
546;DHT22;259;53.304;9.816;2023-03-03T12:34:19;30.50;42.80
546;DHT22;259;53.304;9.816;2023-03-03T12:37:14;30.60;42.80
546;DHT22;259;53.304;9.816;2023-03-03T12:40:02;30.60;42.80
546;DHT22;259;53.304;9.816;2023-03-03T12:46:19;30.60;42.90
546;DHT22;259;53.304;9.816;2023-03-03T12:48:51;30.60;43.00
546;DHT22;259;53.304;9.816;2023-03-03T12:51:30;30.50;43.10
546;DHT22;259;53.304;9.816;2023-03-03T13:00:14;30.20;43.30
546;DHT22;259;53.304;9.816;2023-03-03T13:03:19;30.10;43.60
546;DHT22;259;53.304;9.816;2023-03-03T13:06:06;30.00;43.80
546;DHT22;259;53.304;9.816;2023-03-03T13:09:18;29.80;43.90
546;DHT22;259;53.304;9.816;2023-03-03T13:14:53;29.50;44.30
546;DHT22;259;53.304;9.816;2023-03-03T13:17:27;29.30;44.30
546;DHT22;259;53.304;9.816;2023-03-03T13:19:58;29.20;44.50
546;DHT22;259;53.304;9.816;2023-03-03T13:27:43;28.90;44.90
546;DHT22;259;53.304;9.816;2023-03-03T13:30:20;28.80;45.10
546;DHT22;259;53.304;9.816;2023-03-03T13:33:10;28.70;45.20
546;DHT22;259;53.304;9.816;2023-03-03T13:39:01;28.30;45.50
546;DHT22;259;53.304;9.816;2023-03-03T13:41:55;28.10;45.70
546;DHT22;259;53.304;9.816;2023-03-03T13:44:35;28.00;46.00
546;DHT22;259;53.304;9.816;2023-03-03T13:50:30;27.60;46.30
546;DHT22;259;53.304;9.816;2023-03-03T13:58:36;27.00;46.90
546;DHT22;259;53.304;9.816;2023-03-03T14:01:22;26.90;47.20
546;DHT22;259;53.304;9.816;2023-03-03T14:04:05;26.70;47.40
546;DHT22;259;53.304;9.816;2023-03-03T14:06:39;26.50;47.70
546;DHT22;259;53.304;9.816;2023-03-03T14:12:08;26.10;48.30
546;DHT22;259;53.304;9.816;2023-03-03T14:15:02;26.00;48.70
546;DHT22;259;53.304;9.816;2023-03-03T14:20:40;25.70;49.80
546;DHT22;259;53.304;9.816;2023-03-03T14:26:21;25.50;50.50
546;DHT22;259;53.304;9.816;2023-03-03T14:28:48;25.20;50.50
546;DHT22;259;53.304;9.816;2023-03-03T14:31:28;25.10;50.60
546;DHT22;259;53.304;9.816;2023-03-03T14:34:39;25.00;50.90
546;DHT22;259;53.304;9.816;2023-03-03T14:37:29;24.80;51.50
546;DHT22;259;53.304;9.816;2023-03-03T14:40:28;24.70;53.00
546;DHT22;259;53.304;9.816;2023-03-03T14:42:59;24.60;54.00
546;DHT22;259;53.304;9.816;2023-03-03T14:45:39;24.50;54.10
546;DHT22;259;53.304;9.816;2023-03-03T14:48:20;24.40;54.10
546;DHT22;259;53.304;9.816;2023-03-03T14:53:33;24.20;53.30
546;DHT22;259;53.304;9.816;2023-03-03T15:01:43;24.00;55.10
546;DHT22;259;53.304;9.816;2023-03-03T15:06:43;23.80;54.20
546;DHT22;259;53.304;9.816;2023-03-03T15:09:38;23.70;54.10
546;DHT22;259;53.304;9.816;2023-03-03T15:12:33;23.60;54.20
546;DHT22;259;53.304;9.816;2023-03-03T15:15:16;23.50;54.20
546;DHT22;259;53.304;9.816;2023-03-03T15:26:47;23.20;54.20
546;DHT22;259;53.304;9.816;2023-03-03T15:32:14;23.00;54.20
546;DHT22;259;53.304;9.816;2023-03-03T15:34:59;23.00;54.30
546;DHT22;259;53.304;9.816;2023-03-03T15:37:44;22.90;54.30
546;DHT22;259;53.304;9.816;2023-03-03T15:43:35;22.80;54.50
546;DHT22;259;53.304;9.816;2023-03-03T15:46:18;22.70;54.50
546;DHT22;259;53.304;9.816;2023-03-03T15:54:20;22.50;54.60
546;DHT22;259;53.304;9.816;2023-03-03T15:56:57;22.40;54.60
546;DHT22;259;53.304;9.816;2023-03-03T15:59:50;22.30;54.70
546;DHT22;259;53.304;9.816;2023-03-03T16:03:00;22.30;55.20
546;DHT22;259;53.304;9.816;2023-03-03T16:05:45;22.20;54.60
546;DHT22;259;53.304;9.816;2023-03-03T16:08:25;22.10;54.50
546;DHT22;259;53.304;9.816;2023-03-03T16:16:45;21.80;54.40
546;DHT22;259;53.304;9.816;2023-03-03T16:19:30;21.70;54.30
546;DHT22;259;53.304;9.816;2023-03-03T16:22:40;21.70;54.30
546;DHT22;259;53.304;9.816;2023-03-03T16:31:35;21.40;54.30
546;DHT22;259;53.304;9.816;2023-03-03T16:42:43;21.10;54.40
546;DHT22;259;53.304;9.816;2023-03-03T16:45:21;21.00;54.40
546;DHT22;259;53.304;9.816;2023-03-03T16:50:37;20.90;54.50
546;DHT22;259;53.304;9.816;2023-03-03T16:56:13;20.80;54.50
546;DHT22;259;53.304;9.816;2023-03-03T17:02:07;20.60;54.60
546;DHT22;259;53.304;9.816;2023-03-03T17:04:50;20.60;54.70
546;DHT22;259;53.304;9.816;2023-03-03T17:10:31;20.40;54.70
546;DHT22;259;53.304;9.816;2023-03-03T17:13:12;20.40;54.80
546;DHT22;259;53.304;9.816;2023-03-03T17:16:09;20.30;54.80
546;DHT22;259;53.304;9.816;2023-03-03T17:24:41;20.10;54.90
546;DHT22;259;53.304;9.816;2023-03-03T17:27:33;20.10;55.00
546;DHT22;259;53.304;9.816;2023-03-03T17:30:44;20.00;55.10
546;DHT22;259;53.304;9.816;2023-03-03T17:33:44;20.00;55.00
546;DHT22;259;53.304;9.816;2023-03-03T17:42:58;19.80;55.20
546;DHT22;259;53.304;9.816;2023-03-03T17:45:36;19.70;55.20
546;DHT22;259;53.304;9.816;2023-03-03T18:00:14;19.40;55.30
546;DHT22;259;53.304;9.816;2023-03-03T18:08:37;19.30;55.40
546;DHT22;259;53.304;9.816;2023-03-03T18:16:55;19.10;55.40
546;DHT22;259;53.304;9.816;2023-03-03T18:25:15;19.00;55.60
546;DHT22;259;53.304;9.816;2023-03-03T18:27:43;19.00;55.70
546;DHT22;259;53.304;9.816;2023-03-03T18:33:08;18.90;55.70
546;DHT22;259;53.304;9.816;2023-03-03T18:35:44;18.80;55.70
546;DHT22;259;53.304;9.816;2023-03-03T18:48:57;18.60;55.80
546;DHT22;259;53.304;9.816;2023-03-03T18:59:14;18.50;55.80
546;DHT22;259;53.304;9.816;2023-03-03T19:04:42;18.40;56.00
546;DHT22;259;53.304;9.816;2023-03-03T19:07:15;18.30;56.10
546;DHT22;259;53.304;9.816;2023-03-03T19:09:56;18.30;56.00
546;DHT22;259;53.304;9.816;2023-03-03T19:18:12;18.20;56.00
546;DHT22;259;53.304;9.816;2023-03-03T19:35:13;18.00;55.90
546;DHT22;259;53.304;9.816;2023-03-03T19:37:52;17.90;55.70
546;DHT22;259;53.304;9.816;2023-03-03T19:40:45;17.90;55.90
546;DHT22;259;53.304;9.816;2023-03-03T19:49:30;17.80;55.90
546;DHT22;259;53.304;9.816;2023-03-03T19:52:06;17.70;55.80
546;DHT22;259;53.304;9.816;2023-03-03T19:54:56;17.70;55.90
546;DHT22;259;53.304;9.816;2023-03-03T20:00:41;17.60;55.90
546;DHT22;259;53.304;9.816;2023-03-03T20:06:33;17.50;56.00
546;DHT22;259;53.304;9.816;2023-03-03T20:09:34;17.50;56.10
546;DHT22;259;53.304;9.816;2023-03-03T20:24:25;17.30;56.40
546;DHT22;259;53.304;9.816;2023-03-03T20:27:23;17.30;56.50
546;DHT22;259;53.304;9.816;2023-03-03T20:33:17;17.20;56.40
546;DHT22;259;53.304;9.816;2023-03-03T20:36:13;17.20;56.50
546;DHT22;259;53.304;9.816;2023-03-03T20:39:08;17.10;56.50
546;DHT22;259;53.304;9.816;2023-03-03T20:53:28;16.90;56.60
546;DHT22;259;53.304;9.816;2023-03-03T21:04:35;16.80;56.80
546;DHT22;259;53.304;9.816;2023-03-03T21:07:03;16.80;56.80
546;DHT22;259;53.304;9.816;2023-03-03T21:09:32;16.70;56.80
546;DHT22;259;53.304;9.816;2023-03-03T21:12:01;16.80;56.90
546;DHT22;259;53.304;9.816;2023-03-03T21:15:02;16.70;56.80
546;DHT22;259;53.304;9.816;2023-03-03T21:17:30;16.70;56.80
546;DHT22;259;53.304;9.816;2023-03-03T21:20:17;16.60;56.80
546;DHT22;259;53.304;9.816;2023-03-03T21:22:45;16.60;56.80
546;DHT22;259;53.304;9.816;2023-03-03T21:31:16;16.50;56.80
546;DHT22;259;53.304;9.816;2023-03-03T21:33:49;16.50;56.80
546;DHT22;259;53.304;9.816;2023-03-03T21:36:23;16.50;56.80
546;DHT22;259;53.304;9.816;2023-03-03T21:39:22;16.50;56.90
546;DHT22;259;53.304;9.816;2023-03-03T21:42:08;16.40;56.80
546;DHT22;259;53.304;9.816;2023-03-03T21:44:45;16.40;56.80
546;DHT22;259;53.304;9.816;2023-03-03T21:47:22;16.40;56.80
546;DHT22;259;53.304;9.816;2023-03-03T21:49:49;16.40;57.00
546;DHT22;259;53.304;9.816;2023-03-03T21:52:18;16.30;56.90
546;DHT22;259;53.304;9.816;2023-03-03T21:54:46;16.30;56.90
546;DHT22;259;53.304;9.816;2023-03-03T21:57:13;16.30;56.90
546;DHT22;259;53.304;9.816;2023-03-03T21:59:39;16.30;57.00
546;DHT22;259;53.304;9.816;2023-03-03T22:02:05;16.20;57.00
546;DHT22;259;53.304;9.816;2023-03-03T22:04:32;16.20;56.90
546;DHT22;259;53.304;9.816;2023-03-03T22:06:59;16.20;57.00
546;DHT22;259;53.304;9.816;2023-03-03T22:09:25;16.20;57.10
546;DHT22;259;53.304;9.816;2023-03-03T22:11:51;16.10;57.00
546;DHT22;259;53.304;9.816;2023-03-03T22:14:16;16.10;57.10
546;DHT22;259;53.304;9.816;2023-03-03T22:16:42;16.10;57.20
546;DHT22;259;53.304;9.816;2023-03-03T22:19:08;16.10;57.20
546;DHT22;259;53.304;9.816;2023-03-03T22:21:35;16.00;57.10
546;DHT22;259;53.304;9.816;2023-03-03T22:24:02;16.00;57.30
546;DHT22;259;53.304;9.816;2023-03-03T22:26:28;16.00;57.20
546;DHT22;259;53.304;9.816;2023-03-03T22:28:54;16.00;57.30
546;DHT22;259;53.304;9.816;2023-03-03T22:31:20;15.90;57.30
546;DHT22;259;53.304;9.816;2023-03-03T22:33:46;15.90;57.40
546;DHT22;259;53.304;9.816;2023-03-03T22:36:13;15.90;57.40
546;DHT22;259;53.304;9.816;2023-03-03T22:38:39;15.90;57.40
546;DHT22;259;53.304;9.816;2023-03-03T22:41:05;15.90;57.30
546;DHT22;259;53.304;9.816;2023-03-03T22:43:31;15.80;57.40
546;DHT22;259;53.304;9.816;2023-03-03T22:45:57;15.80;57.50
546;DHT22;259;53.304;9.816;2023-03-03T22:48:25;15.80;57.50
546;DHT22;259;53.304;9.816;2023-03-03T22:50:52;15.80;57.50
546;DHT22;259;53.304;9.816;2023-03-03T22:53:19;15.70;57.50
546;DHT22;259;53.304;9.816;2023-03-03T22:55:45;15.70;57.60
546;DHT22;259;53.304;9.816;2023-03-03T22:58:12;15.70;57.70
546;DHT22;259;53.304;9.816;2023-03-03T23:00:38;15.70;57.50
546;DHT22;259;53.304;9.816;2023-03-03T23:03:06;15.60;57.60
546;DHT22;259;53.304;9.816;2023-03-03T23:05:34;15.60;57.60
546;DHT22;259;53.304;9.816;2023-03-03T23:08:05;15.60;57.60
546;DHT22;259;53.304;9.816;2023-03-03T23:10:32;15.60;57.60
546;DHT22;259;53.304;9.816;2023-03-03T23:12:58;15.50;57.60
546;DHT22;259;53.304;9.816;2023-03-03T23:15:23;15.50;57.60
546;DHT22;259;53.304;9.816;2023-03-03T23:17:49;15.50;57.70
546;DHT22;259;53.304;9.816;2023-03-03T23:20:21;15.50;57.70
546;DHT22;259;53.304;9.816;2023-03-03T23:22:48;15.50;57.80
546;DHT22;259;53.304;9.816;2023-03-03T23:25:14;15.40;57.70
546;DHT22;259;53.304;9.816;2023-03-03T23:27:41;15.40;57.80
546;DHT22;259;53.304;9.816;2023-03-03T23:30:09;15.40;57.90
546;DHT22;259;53.304;9.816;2023-03-03T23:32:35;15.40;58.00
546;DHT22;259;53.304;9.816;2023-03-03T23:35:01;15.30;57.80
546;DHT22;259;53.304;9.816;2023-03-03T23:37:27;15.30;57.90
546;DHT22;259;53.304;9.816;2023-03-03T23:39:53;15.30;57.80
546;DHT22;259;53.304;9.816;2023-03-03T23:42:19;15.30;57.90
546;DHT22;259;53.304;9.816;2023-03-03T23:44:45;15.30;57.90
546;DHT22;259;53.304;9.816;2023-03-03T23:47:10;15.20;58.10
546;DHT22;259;53.304;9.816;2023-03-03T23:49:36;15.20;58.00
546;DHT22;259;53.304;9.816;2023-03-03T23:52:02;15.20;58.00